createdAt,value
2023-03-12T00:00:41.534Z,9.43
2023-03-12T00:03:29.461Z,6.67
2023-03-12T00:06:17.640Z,5.23
2023-03-12T00:09:06.163Z,7.33
2023-03-12T00:11:53.578Z,4.80
2023-03-12T00:14:41.462Z,6.87
2023-03-12T00:17:30.684Z,5.40
2023-03-12T00:20:18.558Z,7.97
2023-03-12T00:23:06.467Z,4.80
2023-03-12T00:25:54.204Z,4.93
2023-03-12T00:28:42.275Z,5.63
2023-03-12T00:31:32.830Z,5.33
2023-03-12T00:34:20.808Z,6.00
2023-03-12T00:37:08.713Z,7.47
2023-03-12T00:39:56.592Z,7.03
2023-03-12T00:42:43.949Z,5.43
2023-03-12T00:45:31.745Z,8.90
2023-03-12T00:48:19.432Z,5.00
2023-03-12T00:51:07.053Z,4.13
2023-03-12T00:53:56.405Z,7.47
2023-03-12T00:56:43.660Z,7.17
2023-03-12T00:59:31.339Z,7.07
2023-03-12T01:02:18.769Z,11.10
2023-03-12T01:05:07.541Z,8.50
2023-03-12T01:07:55.407Z,7.30
2023-03-12T01:10:43.605Z,7.13
2023-03-12T01:13:31.435Z,6.57
2023-03-12T01:16:18.704Z,8.27
2023-03-12T01:19:06.866Z,7.97
2023-03-12T01:21:54.263Z,9.20
2023-03-12T01:24:42.238Z,7.50
2023-03-12T01:27:29.625Z,8.00
2023-03-12T01:30:17.377Z,5.63
2023-03-12T01:33:05.035Z,8.40
2023-03-12T01:35:53.067Z,6.33
2023-03-12T01:38:40.881Z,5.17
2023-03-12T01:41:28.884Z,4.97
2023-03-12T01:44:16.769Z,5.03
2023-03-12T01:47:04.182Z,4.93
2023-03-12T01:49:52.859Z,4.07
2023-03-12T01:52:40.265Z,5.33
2023-03-12T01:55:28.259Z,3.27
2023-03-12T01:58:15.687Z,3.90
2023-03-12T02:01:03.670Z,3.07
2023-03-12T02:03:53.421Z,3.17
2023-03-12T02:06:48.862Z,4.93
2023-03-12T02:09:37.578Z,3.97
2023-03-12T02:12:25.515Z,6.40
2023-03-12T02:15:13.116Z,4.60
2023-03-12T02:18:01.000Z,3.53
2023-03-12T02:20:57.416Z,4.20
2023-03-12T02:24:02.652Z,3.47
2023-03-12T02:26:50.836Z,6.60
2023-03-12T02:29:39.702Z,5.97
2023-03-12T02:32:29.054Z,5.87
2023-03-12T02:35:17.713Z,12.13
2023-03-12T02:38:25.121Z,3.17
2023-03-12T02:41:15.895Z,3.30
2023-03-12T02:44:05.824Z,3.87
2023-03-12T02:46:54.461Z,5.17
2023-03-12T02:49:42.212Z,5.07
2023-03-12T02:52:35.450Z,4.77
2023-03-12T02:55:23.141Z,2.93
2023-03-12T02:58:10.328Z,4.33
2023-03-12T03:00:58.041Z,3.67
2023-03-12T03:03:45.826Z,7.20
2023-03-12T03:06:34.000Z,4.97
2023-03-12T03:09:22.393Z,3.93
2023-03-12T03:12:10.338Z,3.70
2023-03-12T03:14:57.856Z,6.00
2023-03-12T03:17:45.717Z,5.10
2023-03-12T03:20:33.224Z,3.73
2023-03-12T03:23:21.103Z,3.77
2023-03-12T03:26:08.761Z,4.07
2023-03-12T03:28:56.441Z,6.17
2023-03-12T03:31:43.854Z,6.67
2023-03-12T03:34:31.648Z,7.37
2023-03-12T03:37:19.548Z,5.17
2023-03-12T03:40:12.022Z,4.93
2023-03-12T03:42:59.475Z,6.67
2023-03-12T03:45:47.407Z,6.13
2023-03-12T03:48:35.259Z,5.33
2023-03-12T03:51:22.590Z,4.50
2023-03-12T03:54:11.206Z,4.83
2023-03-12T03:56:58.805Z,4.23
2023-03-12T03:59:46.672Z,3.80
2023-03-12T04:02:34.343Z,5.60
2023-03-12T04:05:22.245Z,4.77
2023-03-12T04:08:10.114Z,5.23
2023-03-12T04:10:57.959Z,5.27
2023-03-12T04:13:45.170Z,5.13
2023-03-12T04:16:33.055Z,6.03
2023-03-12T04:19:20.585Z,7.47
2023-03-12T04:22:08.256Z,4.70
2023-03-12T04:24:56.186Z,5.57
2023-03-12T04:27:43.862Z,5.83
2023-03-12T04:30:31.260Z,4.57
2023-03-12T04:33:19.123Z,13.13
2023-03-12T04:36:06.950Z,7.20
2023-03-12T04:38:54.934Z,8.33
2023-03-12T04:41:42.341Z,7.93
2023-03-12T04:44:30.248Z,5.97
2023-03-12T04:47:17.627Z,9.30
2023-03-12T04:50:05.926Z,7.07
2023-03-12T04:52:53.114Z,9.17
2023-03-12T04:55:41.902Z,8.07
2023-03-12T04:58:29.312Z,6.73
2023-03-12T05:01:25.091Z,7.10
2023-03-12T05:04:12.415Z,6.93
2023-03-12T05:07:00.207Z,9.70
2023-03-12T05:09:47.668Z,7.10
2023-03-12T05:12:35.588Z,8.57
2023-03-12T05:15:23.174Z,6.27
2023-03-12T05:18:11.085Z,8.70
2023-03-12T05:21:18.533Z,7.00
2023-03-12T05:24:06.504Z,7.23
2023-03-12T05:26:53.896Z,6.67
2023-03-12T05:29:41.785Z,5.40
2023-03-12T05:32:29.251Z,7.03
2023-03-12T05:35:17.184Z,7.03
2023-03-12T05:38:05.042Z,6.63
2023-03-12T05:40:56.308Z,6.00
2023-03-12T05:43:44.203Z,6.60
2023-03-12T05:46:31.632Z,10.70
2023-03-12T05:49:19.895Z,6.87
2023-03-12T05:52:08.036Z,7.20
2023-03-12T05:54:55.985Z,5.87
2023-03-12T05:57:43.416Z,8.93
2023-03-12T06:00:31.351Z,6.07
2023-03-12T06:03:19.290Z,6.57
2023-03-12T06:06:07.166Z,9.33
2023-03-12T06:08:54.858Z,7.07
2023-03-12T06:11:42.244Z,6.03
2023-03-12T06:14:29.896Z,9.57
2023-03-12T06:17:17.278Z,5.03
2023-03-12T06:20:05.286Z,5.97
2023-03-12T06:22:53.181Z,6.87
2023-03-12T06:25:40.567Z,4.57
2023-03-12T06:28:28.433Z,6.43
2023-03-12T06:31:16.862Z,5.77
2023-03-12T06:34:04.354Z,6.00
2023-03-12T06:36:52.214Z,4.23
2023-03-12T06:39:40.245Z,5.10
2023-03-12T06:42:27.971Z,3.37
2023-03-12T06:45:15.835Z,5.23
2023-03-12T06:48:03.038Z,5.23
2023-03-12T06:50:51.150Z,5.83
2023-03-12T06:53:41.855Z,2.33
2023-03-12T06:56:30.595Z,3.57
2023-03-12T06:59:18.435Z,2.73
2023-03-12T07:02:05.941Z,2.60
2023-03-12T07:04:53.946Z,2.97
2023-03-12T07:07:41.906Z,2.33
2023-03-12T07:10:29.579Z,2.10
2023-03-12T07:13:17.769Z,2.60
2023-03-12T07:16:06.098Z,2.93
2023-03-12T07:18:53.523Z,2.87
2023-03-12T07:21:41.028Z,2.63
2023-03-12T07:24:28.911Z,3.03
2023-03-12T07:27:16.108Z,2.90
2023-03-12T07:30:04.300Z,3.63
2023-03-12T07:32:52.202Z,3.10
2023-03-12T07:35:40.544Z,2.97
2023-03-12T07:38:28.732Z,3.10
2023-03-12T07:41:16.621Z,2.30
2023-03-12T07:44:04.731Z,2.70
2023-03-12T07:46:52.220Z,4.80
2023-03-12T07:49:42.143Z,2.10
2023-03-12T07:52:29.671Z,2.63
2023-03-12T07:55:17.282Z,4.60
2023-03-12T07:58:05.300Z,3.33
2023-03-12T08:00:54.166Z,3.03
2023-03-12T08:03:42.951Z,3.23
2023-03-12T08:06:31.037Z,1.93
2023-03-12T08:09:18.431Z,3.47
2023-03-12T08:12:07.156Z,9.37
2023-03-12T08:14:54.647Z,5.37
2023-03-12T08:17:42.585Z,4.47
2023-03-12T08:20:30.134Z,8.53
2023-03-12T08:23:17.327Z,10.73
2023-03-12T08:26:05.061Z,7.50
2023-03-12T08:28:52.500Z,4.50
2023-03-12T08:31:50.363Z,2.73
2023-03-12T08:34:45.042Z,3.40
2023-03-12T08:37:33.310Z,2.00
2023-03-12T08:40:20.779Z,2.40
2023-03-12T08:43:09.288Z,2.77
2023-03-12T08:45:57.644Z,2.23
2023-03-12T08:48:45.499Z,3.97
2023-03-12T08:51:32.920Z,3.17
2023-03-12T08:54:21.647Z,3.10
2023-03-12T08:57:09.581Z,3.13
2023-03-12T08:59:57.584Z,4.63
2023-03-12T09:02:46.102Z,2.20
2023-03-12T09:05:34.314Z,1.80
2023-03-12T09:08:21.685Z,1.70
2023-03-12T09:11:10.243Z,2.67
2023-03-12T09:14:31.167Z,2.47
2023-03-12T09:17:05.565Z,3.07
2023-03-12T09:19:52.990Z,2.93
2023-03-12T09:22:41.124Z,2.03
2023-03-12T09:25:28.352Z,2.57
2023-03-12T09:28:16.725Z,3.47
2023-03-12T09:31:04.679Z,3.03
2023-03-12T09:33:52.974Z,2.90
2023-03-12T09:36:40.700Z,2.47
2023-03-12T09:39:28.084Z,6.23
2023-03-12T09:42:23.342Z,6.00
2023-03-12T09:45:16.581Z,2.60
2023-03-12T09:48:05.913Z,4.43
2023-03-12T09:50:54.153Z,2.97
2023-03-12T09:53:47.580Z,2.77
2023-03-12T09:56:35.409Z,3.33
2023-03-12T09:59:23.204Z,4.10
2023-03-12T10:02:33.451Z,4.50
2023-03-12T10:05:39.504Z,3.37
2023-03-12T10:08:42.548Z,2.63
2023-03-12T10:11:33.005Z,3.03
2023-03-12T10:14:33.953Z,5.10
2023-03-12T10:17:39.878Z,2.63
2023-03-12T10:20:30.279Z,2.73
2023-03-12T10:23:28.769Z,2.63
2023-03-12T10:26:18.996Z,2.60
2023-03-12T10:29:25.211Z,3.43
2023-03-12T10:32:13.298Z,2.97
2023-03-12T10:35:03.535Z,3.40
2023-03-12T10:37:53.576Z,3.63
2023-03-12T10:40:41.564Z,3.23
2023-03-12T10:43:29.712Z,3.80
2023-03-12T10:46:35.921Z,4.50
2023-03-12T10:49:23.817Z,2.47
2023-03-12T10:52:21.632Z,2.87
2023-03-12T10:55:15.446Z,2.97
2023-03-12T10:58:03.351Z,3.70
2023-03-12T11:00:58.310Z,5.13
2023-03-12T11:03:47.082Z,2.53
2023-03-12T11:06:34.528Z,5.07
2023-03-12T11:09:21.822Z,4.00
2023-03-12T11:12:28.928Z,2.63
2023-03-12T11:15:20.958Z,4.80
2023-03-12T11:18:25.202Z,2.80
2023-03-12T11:21:15.029Z,1.97
2023-03-12T11:24:10.946Z,1.77
2023-03-12T11:27:04.162Z,1.90
2023-03-12T11:29:51.929Z,1.60
2023-03-12T11:32:44.072Z,1.47
2023-03-12T11:35:40.555Z,1.37
2023-03-12T11:38:40.343Z,1.83
2023-03-12T11:41:30.805Z,2.10
2023-03-12T11:44:30.873Z,1.33
2023-03-12T11:47:21.775Z,1.90
2023-03-12T11:50:15.262Z,1.70
2023-03-12T11:53:21.228Z,1.70
2023-03-12T11:56:14.030Z,3.30
2023-03-12T11:59:17.578Z,2.00
2023-03-12T12:02:26.223Z,3.03
2023-03-12T12:05:31.943Z,2.60
2023-03-12T12:08:19.793Z,2.43
2023-03-12T12:11:15.980Z,2.33
2023-03-12T12:14:15.925Z,2.53
2023-03-12T12:17:14.025Z,6.17
2023-03-12T12:20:04.507Z,3.73
2023-03-12T12:23:18.810Z,2.77
2023-03-12T12:26:09.116Z,2.47
2023-03-12T12:29:03.041Z,2.20
2023-03-12T12:31:57.660Z,2.37
2023-03-12T12:35:01.912Z,2.40
2023-03-12T12:37:50.161Z,2.97
2023-03-12T12:40:40.642Z,3.80
2023-03-12T12:43:28.183Z,10.20
2023-03-12T12:46:18.385Z,7.40
2023-03-12T12:49:11.856Z,3.47
2023-03-12T12:52:01.195Z,3.43
2023-03-12T12:54:59.231Z,3.83
2023-03-12T12:57:51.661Z,3.33
2023-03-12T13:00:56.304Z,3.70
2023-03-12T13:03:44.340Z,3.20
2023-03-12T13:06:56.305Z,4.43
2023-03-12T13:09:46.361Z,2.67
2023-03-12T13:12:35.190Z,3.80
2023-03-12T13:15:28.560Z,3.27
2023-03-12T13:18:22.542Z,2.60
2023-03-12T13:21:17.939Z,2.87
2023-03-12T13:24:20.524Z,3.27
2023-03-12T13:27:18.884Z,2.53
2023-03-12T13:30:35.562Z,5.57
2023-03-12T13:33:38.161Z,3.83
2023-03-12T13:36:28.731Z,3.93
2023-03-12T13:39:15.895Z,3.40
2023-03-12T13:42:23.558Z,4.80
2023-03-12T13:45:22.673Z,2.90
2023-03-12T13:48:17.402Z,3.20
2023-03-12T13:51:24.755Z,2.97
2023-03-12T13:54:17.121Z,3.07
2023-03-12T13:57:11.470Z,3.63
2023-03-12T13:59:59.383Z,2.50
2023-03-12T14:02:52.560Z,2.73
2023-03-12T14:06:00.584Z,4.10
2023-03-12T14:08:57.090Z,1.97
2023-03-12T14:12:01.873Z,1.93
2023-03-12T14:15:08.510Z,2.40
2023-03-12T14:18:04.739Z,5.63
2023-03-12T14:20:55.143Z,4.83
2023-03-12T14:23:48.526Z,3.93
2023-03-12T14:26:37.059Z,3.53
2023-03-12T14:29:29.123Z,2.30
2023-03-12T14:32:36.803Z,3.33
2023-03-12T14:35:29.498Z,2.37
2023-03-12T14:38:29.055Z,1.30
2023-03-12T14:41:31.298Z,4.17
2023-03-12T14:44:23.981Z,2.33
2023-03-12T14:47:11.886Z,2.63
2023-03-12T14:49:59.338Z,2.00
2023-03-12T14:52:47.355Z,2.67
2023-03-12T14:55:34.759Z,3.50
2023-03-12T14:58:22.621Z,1.10
2023-03-12T15:01:12.554Z,1.73
2023-03-12T15:04:04.062Z,2.07
2023-03-12T15:06:56.417Z,2.13
2023-03-12T15:09:45.497Z,2.77
2023-03-12T15:12:35.236Z,2.33
2023-03-12T15:15:22.648Z,0.73
2023-03-12T15:18:21.823Z,2.93
2023-03-12T15:21:09.746Z,1.30
2023-03-12T15:23:57.228Z,0.90
2023-03-12T15:26:44.417Z,4.93
2023-03-12T15:29:32.202Z,2.43
2023-03-12T15:32:20.735Z,0.80
2023-03-12T15:35:14.775Z,4.03
2023-03-12T15:38:02.620Z,0.80
2023-03-12T15:40:53.852Z,1.70
2023-03-12T15:43:44.325Z,2.50
2023-03-12T15:46:32.235Z,1.20
2023-03-12T15:49:24.750Z,1.27
2023-03-12T15:52:24.648Z,1.17
2023-03-12T15:55:14.861Z,2.00
2023-03-12T15:58:02.840Z,1.40
2023-03-12T16:00:50.812Z,1.57
2023-03-12T16:03:39.371Z,2.43
2023-03-12T16:06:29.847Z,1.93
2023-03-12T16:09:19.831Z,1.47
2023-03-12T16:12:07.420Z,2.30
2023-03-12T16:14:56.353Z,1.33
2023-03-12T16:17:44.263Z,2.37
2023-03-12T16:20:32.152Z,2.17
2023-03-12T16:23:20.076Z,2.10
2023-03-12T16:26:08.315Z,2.27
2023-03-12T16:28:55.710Z,2.87
2023-03-12T16:31:43.571Z,1.43
2023-03-12T16:34:31.483Z,1.40
2023-03-12T16:37:19.000Z,1.43
2023-03-12T16:40:07.211Z,1.83
2023-03-12T16:42:55.747Z,4.17
2023-03-12T16:45:45.135Z,2.20
2023-03-12T16:48:32.631Z,2.80
2023-03-12T16:51:20.466Z,2.17
2023-03-12T16:54:11.714Z,1.63
2023-03-12T16:57:00.059Z,1.50
2023-03-12T16:59:47.440Z,4.20
2023-03-12T17:02:36.623Z,3.70
2023-03-12T17:05:28.712Z,2.30
2023-03-12T17:08:16.172Z,3.30
2023-03-12T17:11:04.432Z,3.77
2023-03-12T17:13:56.339Z,2.30
2023-03-12T17:16:44.152Z,2.93
2023-03-12T17:19:31.350Z,4.47
2023-03-12T17:22:19.446Z,2.33
2023-03-12T17:25:07.120Z,1.60
2023-03-12T17:27:57.854Z,3.30
2023-03-12T17:30:45.858Z,2.00
2023-03-12T17:33:34.211Z,4.23
2023-03-12T17:36:21.488Z,2.90
2023-03-12T17:39:10.390Z,1.80
2023-03-12T17:41:58.152Z,3.40
2023-03-12T17:44:45.348Z,2.57
2023-03-12T17:47:32.567Z,1.03
2023-03-12T17:50:20.517Z,3.53
2023-03-12T17:53:08.073Z,1.57
2023-03-12T17:55:55.931Z,2.40
2023-03-12T17:58:43.312Z,3.27
2023-03-12T18:01:31.198Z,1.97
2023-03-12T18:04:18.631Z,1.30
2023-03-12T18:07:07.514Z,2.77
2023-03-12T18:09:55.391Z,3.07
2023-03-12T18:12:43.470Z,1.90
2023-03-12T18:15:30.682Z,3.60
2023-03-12T18:18:18.104Z,4.60
2023-03-12T18:21:05.679Z,2.40
2023-03-12T18:23:55.824Z,2.97
2023-03-12T18:26:45.540Z,2.97
2023-03-12T18:29:35.041Z,2.10
2023-03-12T18:32:22.288Z,2.73
2023-03-12T18:35:10.367Z,1.40
2023-03-12T18:37:58.038Z,2.40
2023-03-12T18:40:45.718Z,2.93
2023-03-12T18:43:33.829Z,1.60
2023-03-12T18:46:24.218Z,3.37
2023-03-12T18:49:12.883Z,4.10
2023-03-12T18:52:00.333Z,1.17
2023-03-12T18:54:48.377Z,1.47
2023-03-12T18:57:36.199Z,2.13
2023-03-12T19:00:23.733Z,1.67
2023-03-12T19:03:11.637Z,1.67
2023-03-12T19:06:07.185Z,4.53
2023-03-12T19:08:55.100Z,1.83
2023-03-12T19:11:42.609Z,4.33
2023-03-12T19:14:30.330Z,2.60
2023-03-12T19:17:17.826Z,2.30
2023-03-12T19:20:06.118Z,3.87
2023-03-12T19:22:53.681Z,4.67
2023-03-12T19:25:41.191Z,4.77
2023-03-12T19:28:29.105Z,3.23
2023-03-12T19:31:16.781Z,3.93
2023-03-12T19:34:04.763Z,2.90
2023-03-12T19:36:52.197Z,3.50
2023-03-12T19:39:40.095Z,2.87
2023-03-12T19:42:27.487Z,1.80
2023-03-12T19:45:15.272Z,4.57
2023-03-12T19:48:04.139Z,2.87
2023-03-12T19:50:52.088Z,3.47
2023-03-12T19:53:40.069Z,3.50
2023-03-12T19:56:28.047Z,2.43
2023-03-12T19:59:15.506Z,2.57
2023-03-12T20:02:03.574Z,2.27
2023-03-12T20:04:51.386Z,2.60
2023-03-12T20:07:39.168Z,2.30
2023-03-12T20:10:28.245Z,1.83
2023-03-12T20:13:17.580Z,2.63
2023-03-12T20:16:07.180Z,6.43
2023-03-12T20:18:54.552Z,4.10
2023-03-12T20:21:44.495Z,2.00
2023-03-12T20:24:31.919Z,3.93
2023-03-12T20:27:19.367Z,2.93
2023-03-12T20:30:07.264Z,4.10
2023-03-12T20:32:54.800Z,4.30
2023-03-12T20:35:42.332Z,5.27
2023-03-12T20:38:30.156Z,4.53
2023-03-12T20:41:18.126Z,1.53
2023-03-12T20:44:06.038Z,5.20
2023-03-12T20:46:53.453Z,2.57
2023-03-12T20:49:41.406Z,2.83
2023-03-12T20:52:28.823Z,2.97
2023-03-12T20:55:16.814Z,3.77
2023-03-12T20:58:05.882Z,2.43
2023-03-12T21:00:53.354Z,4.10
2023-03-12T21:03:40.777Z,2.60
2023-03-12T21:06:28.231Z,3.23
2023-03-12T21:09:15.679Z,1.50
2023-03-12T21:12:03.154Z,2.63
2023-03-12T21:14:51.051Z,3.13
2023-03-12T21:17:39.114Z,1.73
2023-03-12T21:20:26.879Z,1.80
2023-03-12T21:23:14.175Z,1.60
2023-03-12T21:26:03.419Z,3.13
2023-03-12T21:28:50.819Z,4.60
2023-03-12T21:31:38.770Z,2.23
2023-03-12T21:34:30.486Z,3.97
2023-03-12T21:37:18.338Z,2.43
2023-03-12T21:40:06.597Z,1.80
2023-03-12T21:42:54.550Z,2.60
2023-03-12T21:45:42.097Z,2.37
2023-03-12T21:48:29.548Z,2.67
2023-03-12T21:51:17.782Z,2.37
2023-03-12T21:54:06.148Z,4.57
2023-03-12T21:56:53.603Z,3.63
2023-03-12T21:59:41.571Z,2.97
2023-03-12T22:02:29.497Z,4.40
2023-03-12T22:05:17.478Z,4.97
2023-03-12T22:08:04.947Z,7.43
2023-03-12T22:10:53.040Z,5.90
2023-03-12T22:13:40.461Z,5.33
2023-03-12T22:16:28.443Z,7.47
2023-03-12T22:19:15.958Z,3.63
2023-03-12T22:22:04.050Z,3.30
2023-03-12T22:24:52.015Z,3.80
2023-03-12T22:27:39.930Z,4.33
2023-03-12T22:30:27.380Z,2.97
2023-03-12T22:33:14.833Z,2.67
2023-03-12T22:36:05.463Z,7.13
2023-03-12T22:38:53.066Z,7.13
2023-03-12T22:41:40.333Z,3.87
2023-03-12T22:44:27.769Z,4.07
2023-03-12T22:47:15.691Z,2.30
2023-03-12T22:50:03.107Z,4.40
2023-03-12T22:52:51.145Z,4.53
2023-03-12T22:55:38.844Z,5.87
2023-03-12T22:58:26.517Z,3.43
2023-03-12T23:01:16.438Z,4.60
2023-03-12T23:04:06.185Z,2.50
2023-03-12T23:07:01.602Z,3.60
2023-03-12T23:09:58.968Z,3.47
2023-03-12T23:12:46.928Z,5.87
2023-03-12T23:15:40.897Z,7.13
2023-03-12T23:18:29.640Z,4.27
2023-03-12T23:21:18.627Z,3.60
2023-03-12T23:24:06.890Z,2.10
2023-03-12T23:26:55.409Z,3.90
2023-03-12T23:29:43.332Z,3.23
2023-03-12T23:32:30.842Z,4.20
2023-03-12T23:35:18.390Z,4.03
2023-03-12T23:38:06.827Z,5.83
2023-03-12T23:40:54.279Z,1.57
2023-03-12T23:43:42.208Z,2.70
2023-03-12T23:46:29.941Z,3.37
2023-03-12T23:49:17.182Z,3.10
2023-03-12T23:52:05.249Z,4.10
2023-03-12T23:54:52.665Z,2.53
2023-03-12T23:57:40.180Z,6.17
